createdAt,value
2022-09-10T00:01:42.483Z,97555.78
2022-09-10T00:06:44.212Z,97558.81
2022-09-10T00:11:46.335Z,97557.16
2022-09-10T00:16:47.759Z,97553.06
2022-09-10T00:21:50.593Z,97546.59
2022-09-10T00:26:51.913Z,97562.56
2022-09-10T00:31:54.800Z,97550.59
2022-09-10T00:36:56.703Z,97549.16
2022-09-10T00:41:58.348Z,97551.53
2022-09-10T00:47:00.232Z,97555.28
2022-09-10T00:52:01.877Z,97552.13
2022-09-10T00:57:05.539Z,97549.56
2022-09-10T01:02:07.131Z,97542.63
2022-09-10T01:07:10.396Z,97540.06
2022-09-10T01:12:19.750Z,97543.69
2022-09-10T01:17:46.830Z,97536.31
2022-09-10T01:23:17.714Z,97538.66
2022-09-10T01:28:25.836Z,97546.16
2022-09-10T01:33:30.422Z,97541.25
2022-09-10T01:38:34.034Z,97549.22
2022-09-10T01:43:36.034Z,97544.75
2022-09-10T01:48:56.318Z,97543.59
2022-09-10T01:54:16.334Z,97542.88
2022-09-10T01:59:23.294Z,97542.53
2022-09-10T02:04:25.375Z,97536.78
2022-09-10T02:09:27.445Z,97535.13
2022-09-10T02:14:29.673Z,97535.13
2022-09-10T02:19:51.577Z,97535.94
2022-09-10T02:24:52.918Z,97533.50
2022-09-10T02:29:55.285Z,97536.88
2022-09-10T02:34:57.166Z,97544.41
2022-09-10T02:40:02.635Z,97541.09
2022-09-10T02:45:04.685Z,97538.63
2022-09-10T02:50:06.941Z,97535.06
2022-09-10T02:55:09.130Z,97537.75
2022-09-10T03:00:10.733Z,97538.63
2022-09-10T03:05:12.255Z,97538.63
2022-09-10T03:10:13.671Z,97538.63
2022-09-10T03:15:15.273Z,97541.31
2022-09-10T03:20:17.839Z,97534.50
2022-09-10T03:25:19.527Z,97528.28
2022-09-10T03:30:21.894Z,97524.53
2022-09-10T03:35:23.435Z,97525.34
2022-09-10T03:40:24.785Z,97536.13
2022-09-10T03:45:26.899Z,97532.03
2022-09-10T03:50:28.305Z,97533.31
2022-09-10T03:55:30.337Z,97540.00
2022-09-10T04:00:33.174Z,97533.88
2022-09-10T04:05:38.478Z,97544.53
2022-09-10T04:10:40.443Z,97545.69
2022-09-10T04:15:44.406Z,97538.31
2022-09-10T04:20:47.697Z,97540.41
2022-09-10T04:25:49.555Z,97544.16
2022-09-10T04:30:51.359Z,97546.34
2022-09-10T04:35:55.195Z,97535.06
2022-09-10T04:41:02.688Z,97552.59
2022-09-10T04:46:04.190Z,97548.81
2022-09-10T04:51:16.218Z,97556.97
2022-09-10T04:56:21.311Z,97546.66
2022-09-10T05:01:23.471Z,97554.84
2022-09-10T05:06:28.078Z,97562.50
2022-09-10T05:11:31.337Z,97561.66
2022-09-10T05:16:33.400Z,97566.94
2022-09-10T05:21:35.157Z,97557.19
2022-09-10T05:26:37.281Z,97558.00
2022-09-10T05:31:40.858Z,97552.63
2022-09-10T05:36:43.502Z,97559.66
2022-09-10T05:41:45.644Z,97555.00
2022-09-10T05:46:48.388Z,97561.50
2022-09-10T05:51:51.025Z,97562.59
2022-09-10T05:56:52.576Z,97565.72
2022-09-10T06:01:54.718Z,97563.88
2022-09-10T06:06:58.286Z,97574.31
2022-09-10T06:11:59.927Z,97566.97
2022-09-10T06:17:01.354Z,97567.31
2022-09-10T06:22:05.521Z,97587.03
2022-09-10T06:27:12.497Z,97578.94
2022-09-10T06:32:15.057Z,97588.44
2022-09-10T06:37:18.671Z,97584.97
2022-09-10T06:42:20.464Z,97585.47
2022-09-10T06:53:11.517Z,97597.81
2022-09-10T06:58:12.913Z,97583.03
2022-09-10T07:03:15.730Z,97578.91
2022-09-10T07:08:17.422Z,97577.81
2022-09-10T07:13:23.341Z,97592.84
2022-09-10T07:18:25.569Z,97580.22
2022-09-10T07:23:27.118Z,97584.41
2022-09-10T07:28:28.924Z,97587.97
2022-09-10T07:33:30.757Z,97589.69
2022-09-10T07:38:32.363Z,97594.28
2022-09-10T07:43:34.656Z,97589.38
2022-09-10T07:48:37.237Z,97597.25
2022-09-10T07:53:42.154Z,97599.97
2022-09-10T07:58:53.733Z,97590.63
2022-09-10T08:03:56.894Z,97601.09
2022-09-10T08:08:59.938Z,97608.78
2022-09-10T08:14:01.542Z,97614.03
2022-09-10T08:19:04.494Z,97602.25
2022-09-10T08:24:10.369Z,97599.47
2022-09-10T08:29:13.753Z,97602.59
2022-09-10T08:34:15.819Z,97595.88
2022-09-10T08:39:24.037Z,97595.03
2022-09-10T08:44:50.177Z,97608.97
2022-09-10T08:50:01.368Z,97605.53
2022-09-10T08:55:19.295Z,97606.44
2022-09-10T09:00:24.319Z,97598.47
2022-09-10T09:05:26.062Z,97603.22
2022-09-10T09:10:48.117Z,97595.66
2022-09-10T09:15:56.888Z,97601.06
2022-09-10T09:21:00.780Z,97604.81
2022-09-10T09:26:11.447Z,97598.38
2022-09-10T09:31:17.090Z,97601.88
2022-09-10T09:36:25.346Z,97597.59
2022-09-10T09:41:32.438Z,97598.72
2022-09-10T09:46:34.407Z,97589.03
2022-09-10T09:51:40.503Z,97587.63
2022-09-10T09:56:43.179Z,97577.88
2022-09-10T10:01:44.926Z,97584.47
2022-09-10T10:06:47.587Z,97585.44
2022-09-10T10:11:59.403Z,97579.63
2022-09-10T10:17:01.238Z,97573.47
2022-09-10T10:22:14.800Z,97577.91
2022-09-10T10:27:17.919Z,97568.88
2022-09-10T10:32:20.528Z,97554.09
2022-09-10T10:37:21.991Z,97566.69
2022-09-10T10:42:33.158Z,97567.47
2022-09-10T10:47:41.402Z,97562.91
2022-09-10T10:53:01.458Z,97556.00
2022-09-10T10:58:02.740Z,97557.97
2022-09-10T11:03:21.173Z,97547.56
2022-09-10T11:08:52.032Z,97546.53
2022-09-10T11:14:19.972Z,97547.78
2022-09-10T11:19:40.347Z,97546.91
2022-09-10T11:25:11.176Z,97538.97
2022-09-10T11:30:16.129Z,97535.47
2022-09-10T11:40:35.694Z,97538.50
2022-09-10T11:45:53.249Z,97529.66
2022-09-10T11:51:13.421Z,97535.00
2022-09-10T11:56:31.090Z,97536.06
2022-09-10T12:01:41.665Z,97526.75
2022-09-10T12:06:59.258Z,97519.38
2022-09-10T12:12:05.998Z,97515.25
2022-09-10T12:17:14.436Z,97511.78
2022-09-10T12:22:27.869Z,97516.66
2022-09-10T12:27:48.921Z,97515.66
2022-09-10T12:32:52.826Z,97521.19
2022-09-10T12:38:14.086Z,97518.38
2022-09-10T12:43:36.013Z,97512.31
2022-09-10T12:48:47.865Z,97504.44
2022-09-10T12:53:49.541Z,97508.91
2022-09-10T12:59:09.695Z,97499.81
2022-09-10T13:04:24.428Z,97505.41
2022-09-10T13:09:28.190Z,97504.22
2022-09-10T13:14:36.758Z,97495.66
2022-09-10T13:19:42.067Z,97492.19
2022-09-10T13:25:00.257Z,97500.94
2022-09-10T13:30:11.113Z,97487.16
2022-09-10T13:35:21.485Z,97485.94
2022-09-10T13:40:39.422Z,97491.16
2022-09-10T13:45:41.814Z,97483.13
2022-09-10T13:51:01.569Z,97481.91
2022-09-10T13:56:12.289Z,97494.13
2022-09-10T14:01:15.803Z,97497.41
2022-09-10T14:06:22.013Z,97494.13
2022-09-10T14:11:24.999Z,97494.63
2022-09-10T14:16:32.946Z,97492.59
2022-09-10T14:21:34.677Z,97491.78
2022-09-10T14:26:36.535Z,97484.50
2022-09-10T14:31:38.170Z,97467.31
2022-09-10T14:36:39.734Z,97473.31
2022-09-10T14:41:42.139Z,97481.94
2022-09-10T14:46:57.081Z,97477.72
2022-09-10T14:51:59.322Z,97482.50
2022-09-10T14:57:02.936Z,97490.75
2022-09-10T15:02:13.346Z,97494.38
2022-09-10T15:07:14.820Z,97490.88
2022-09-10T15:12:23.741Z,97502.28
2022-09-10T15:17:25.142Z,97505.22
2022-09-10T15:22:27.838Z,97507.22
2022-09-10T15:27:30.028Z,97519.63
2022-09-10T15:32:31.350Z,97509.81
2022-09-10T15:37:32.679Z,97508.53
2022-09-10T15:42:34.882Z,97516.59
2022-09-10T15:47:36.152Z,97516.03
2022-09-10T15:52:37.869Z,97516.03
2022-09-10T15:57:40.260Z,97517.72
2022-09-10T16:02:42.120Z,97519.69
2022-09-10T16:07:44.429Z,97524.88
2022-09-10T16:12:45.733Z,97517.31
2022-09-10T16:17:47.050Z,97529.00
2022-09-10T16:22:48.329Z,97524.53
2022-09-10T16:27:49.594Z,97522.97
2022-09-10T16:32:51.979Z,97526.72
2022-09-10T16:37:53.284Z,97534.84
2022-09-10T16:42:54.572Z,97523.13
2022-09-10T16:47:57.956Z,97534.44
2022-09-10T16:53:02.525Z,97539.31
2022-09-10T16:58:03.958Z,97533.56
2022-09-10T17:03:06.042Z,97531.84
2022-09-10T17:08:07.357Z,97537.09
2022-09-10T17:13:11.064Z,97535.00
2022-09-10T17:18:12.350Z,97532.38
2022-09-10T17:23:13.682Z,97526.81
2022-09-10T17:28:15.057Z,97526.63
2022-09-10T17:33:16.328Z,97537.88
2022-09-10T17:38:17.602Z,97538.28
2022-09-10T17:43:19.053Z,97545.72
2022-09-10T17:48:20.371Z,97547.72
2022-09-10T17:53:21.702Z,97533.81
2022-09-10T17:58:23.024Z,97550.16
2022-09-10T18:03:24.372Z,97557.03
2022-09-10T18:08:25.634Z,97555.53
2022-09-10T18:13:27.446Z,97554.84
2022-09-10T18:18:28.725Z,97563.66
2022-09-10T18:23:30.001Z,97559.56
2022-09-10T18:28:31.280Z,97557.59
2022-09-10T18:33:40.550Z,97570.97
2022-09-10T18:38:42.039Z,97565.50
2022-09-10T18:43:43.617Z,97561.03
2022-09-10T18:48:46.576Z,97559.28
2022-09-10T18:53:48.301Z,97565.63
2022-09-10T18:58:50.457Z,97569.84
2022-09-10T19:03:51.819Z,97576.78
2022-09-10T19:08:54.253Z,97578.53
2022-09-10T19:13:56.472Z,97581.72
2022-09-10T19:18:58.937Z,97583.59
2022-09-10T19:24:03.630Z,97593.34
2022-09-10T19:29:05.338Z,97582.56
2022-09-10T19:34:07.367Z,97588.53
2022-09-10T19:39:09.869Z,97591.22
2022-09-10T19:44:12.421Z,97599.91
2022-09-10T19:49:13.985Z,97599.19
2022-09-10T19:54:15.344Z,97603.91
2022-09-10T19:59:16.968Z,97596.38
2022-09-10T20:04:18.272Z,97592.19
2022-09-10T20:09:19.576Z,97589.00
2022-09-10T20:14:21.009Z,97585.50
2022-09-10T20:19:22.599Z,97591.13
2022-09-10T20:24:23.900Z,97587.34
2022-09-10T20:29:25.391Z,97584.09
2022-09-10T20:34:26.692Z,97581.00
2022-09-10T20:39:28.200Z,97581.13
2022-09-10T20:44:30.034Z,97576.22
2022-09-10T20:49:31.344Z,97577.25
2022-09-10T20:54:32.857Z,97568.81
2022-09-10T20:59:34.501Z,97564.94
2022-09-10T21:04:35.773Z,97571.63
2022-09-10T21:09:37.113Z,97574.81
2022-09-10T21:14:38.405Z,97573.63
2022-09-10T21:19:39.683Z,97566.00
2022-09-10T21:24:43.393Z,97574.59
2022-09-10T21:29:44.961Z,97581.25
2022-09-10T21:34:46.276Z,97566.13
2022-09-10T21:39:47.591Z,97573.84
2022-09-10T21:44:48.933Z,97573.75
2022-09-10T21:49:50.208Z,97575.72
2022-09-10T21:54:51.473Z,97585.59
2022-09-10T21:59:53.257Z,97591.69
2022-09-10T22:04:54.580Z,97588.28
2022-09-10T22:09:56.141Z,97587.56
2022-09-10T22:14:58.018Z,97592.84
2022-09-10T22:19:59.301Z,97596.22
2022-09-10T22:25:01.088Z,97592.13
2022-09-10T22:30:04.594Z,97595.03
2022-09-10T22:35:08.146Z,97595.03
2022-09-10T22:40:10.106Z,97595.47
2022-09-10T22:45:12.388Z,97601.09
2022-09-10T22:50:13.938Z,97602.13
2022-09-10T22:55:15.236Z,97607.06
2022-09-10T23:00:16.541Z,97606.84
2022-09-10T23:05:17.827Z,97614.28
2022-09-10T23:10:19.102Z,97607.25
2022-09-10T23:15:20.442Z,97612.84
2022-09-10T23:20:21.723Z,97618.25
2022-09-10T23:25:22.992Z,97618.25
2022-09-10T23:30:24.309Z,97623.66
2022-09-10T23:35:25.583Z,97623.44
2022-09-10T23:40:31.053Z,97621.78
2022-09-10T23:45:34.933Z,97627.41
2022-09-10T23:50:36.333Z,97628.06
2022-09-10T23:55:37.658Z,97622.53
